sensor_id;sensor_type;location;lat;lon;timestamp;temperature;humidity
36498;DHT22;22513;51.222;6.480;2022-10-22T00:00:09;12.00;99.90
36498;DHT22;22513;51.222;6.480;2022-10-22T00:02:35;12.00;99.90
36498;DHT22;22513;51.222;6.480;2022-10-22T00:05:01;12.00;99.90
36498;DHT22;22513;51.222;6.480;2022-10-22T00:07:27;12.00;99.90
36498;DHT22;22513;51.222;6.480;2022-10-22T00:09:52;11.90;99.90
36498;DHT22;22513;51.222;6.480;2022-10-22T00:12:18;11.90;99.90
36498;DHT22;22513;51.222;6.480;2022-10-22T00:14:44;12.00;99.90
36498;DHT22;22513;51.222;6.480;2022-10-22T00:17:10;11.90;99.90
36498;DHT22;22513;51.222;6.480;2022-10-22T00:19:35;11.90;99.90
36498;DHT22;22513;51.222;6.480;2022-10-22T00:22:01;11.90;99.90
36498;DHT22;22513;51.222;6.480;2022-10-22T00:24:30;11.80;99.90
36498;DHT22;22513;51.222;6.480;2022-10-22T00:26:56;11.80;99.90
36498;DHT22;22513;51.222;6.480;2022-10-22T00:29:22;11.80;99.90
36498;DHT22;22513;51.222;6.480;2022-10-22T00:31:47;11.70;99.90
36498;DHT22;22513;51.222;6.480;2022-10-22T00:34:18;11.70;99.90
36498;DHT22;22513;51.222;6.480;2022-10-22T00:36:46;11.70;99.90
36498;DHT22;22513;51.222;6.480;2022-10-22T00:39:13;11.70;99.90
36498;DHT22;22513;51.222;6.480;2022-10-22T00:41:41;11.70;99.90
36498;DHT22;22513;51.222;6.480;2022-10-22T00:44:06;11.80;99.90
36498;DHT22;22513;51.222;6.480;2022-10-22T00:46:32;11.90;99.90
36498;DHT22;22513;51.222;6.480;2022-10-22T00:49:00;11.80;99.90
36498;DHT22;22513;51.222;6.480;2022-10-22T00:51:30;11.80;99.90
36498;DHT22;22513;51.222;6.480;2022-10-22T00:54:00;11.90;99.90
36498;DHT22;22513;51.222;6.480;2022-10-22T00:56:27;11.90;99.90
36498;DHT22;22513;51.222;6.480;2022-10-22T00:58:56;11.90;99.90
36498;DHT22;22513;51.222;6.480;2022-10-22T01:01:25;11.90;99.90
36498;DHT22;22513;51.222;6.480;2022-10-22T01:03:51;11.90;99.90
36498;DHT22;22513;51.222;6.480;2022-10-22T01:06:24;11.90;99.90
36498;DHT22;22513;51.222;6.480;2022-10-22T01:17:27;12.00;99.90
36498;DHT22;22513;51.222;6.480;2022-10-22T01:22:31;12.10;99.90
36498;DHT22;22513;51.222;6.480;2022-10-22T01:30:26;12.00;99.90
36498;DHT22;22513;51.222;6.480;2022-10-22T01:32:55;12.10;99.90
36498;DHT22;22513;51.222;6.480;2022-10-22T01:35:25;12.10;99.90
36498;DHT22;22513;51.222;6.480;2022-10-22T01:37:55;12.10;99.90
36498;DHT22;22513;51.222;6.480;2022-10-22T01:40:22;12.10;99.90
36498;DHT22;22513;51.222;6.480;2022-10-22T01:42:56;12.00;99.90
36498;DHT22;22513;51.222;6.480;2022-10-22T01:45:22;12.00;99.90
36498;DHT22;22513;51.222;6.480;2022-10-22T01:48:25;12.00;99.90
36498;DHT22;22513;51.222;6.480;2022-10-22T01:54:07;12.00;99.90
36498;DHT22;22513;51.222;6.480;2022-10-22T01:56:55;11.90;99.90
36498;DHT22;22513;51.222;6.480;2022-10-22T02:02:00;11.80;99.90
36498;DHT22;22513;51.222;6.480;2022-10-22T02:04:40;11.70;99.90
36498;DHT22;22513;51.222;6.480;2022-10-22T02:07:11;11.70;99.90
36498;DHT22;22513;51.222;6.480;2022-10-22T02:09:39;11.70;99.90
36498;DHT22;22513;51.222;6.480;2022-10-22T02:12:07;11.60;99.90
36498;DHT22;22513;51.222;6.480;2022-10-22T02:14:36;11.70;99.90
36498;DHT22;22513;51.222;6.480;2022-10-22T02:17:07;11.70;99.90
36498;DHT22;22513;51.222;6.480;2022-10-22T02:19:57;11.70;99.90
36498;DHT22;22513;51.222;6.480;2022-10-22T02:22:24;11.70;99.90
36498;DHT22;22513;51.222;6.480;2022-10-22T02:24:50;11.70;99.90
36498;DHT22;22513;51.222;6.480;2022-10-22T02:27:32;11.60;99.90
36498;DHT22;22513;51.222;6.480;2022-10-22T02:30:04;11.60;99.90
36498;DHT22;22513;51.222;6.480;2022-10-22T02:33:06;11.50;99.90
36498;DHT22;22513;51.222;6.480;2022-10-22T02:35:33;11.50;99.90
36498;DHT22;22513;51.222;6.480;2022-10-22T02:38:00;11.50;99.90
36498;DHT22;22513;51.222;6.480;2022-10-22T02:40:26;11.50;99.90
36498;DHT22;22513;51.222;6.480;2022-10-22T02:42:52;11.40;99.90
36498;DHT22;22513;51.222;6.480;2022-10-22T02:45:19;11.40;99.90
36498;DHT22;22513;51.222;6.480;2022-10-22T02:47:45;11.40;99.90
36498;DHT22;22513;51.222;6.480;2022-10-22T02:50:10;11.40;99.90
36498;DHT22;22513;51.222;6.480;2022-10-22T02:52:37;11.40;99.90
36498;DHT22;22513;51.222;6.480;2022-10-22T02:55:03;11.30;99.90
36498;DHT22;22513;51.222;6.480;2022-10-22T02:57:29;11.40;99.90
36498;DHT22;22513;51.222;6.480;2022-10-22T02:59:54;11.40;99.90
36498;DHT22;22513;51.222;6.480;2022-10-22T03:02:20;11.40;99.90
36498;DHT22;22513;51.222;6.480;2022-10-22T03:04:46;11.30;99.90
36498;DHT22;22513;51.222;6.480;2022-10-22T03:07:11;11.30;99.90
36498;DHT22;22513;51.222;6.480;2022-10-22T03:09:37;11.30;99.90
36498;DHT22;22513;51.222;6.480;2022-10-22T03:12:02;11.30;99.90
36498;DHT22;22513;51.222;6.480;2022-10-22T03:14:28;11.40;99.90
36498;DHT22;22513;51.222;6.480;2022-10-22T03:16:54;11.40;99.90
36498;DHT22;22513;51.222;6.480;2022-10-22T03:19:19;11.40;99.90
36498;DHT22;22513;51.222;6.480;2022-10-22T03:24:17;11.40;99.90
36498;DHT22;22513;51.222;6.480;2022-10-22T03:26:45;11.50;99.90
36498;DHT22;22513;51.222;6.480;2022-10-22T03:29:12;11.50;99.90
36498;DHT22;22513;51.222;6.480;2022-10-22T03:31:39;11.50;99.90
36498;DHT22;22513;51.222;6.480;2022-10-22T03:34:05;11.40;99.90
36498;DHT22;22513;51.222;6.480;2022-10-22T03:36:31;11.40;99.90
36498;DHT22;22513;51.222;6.480;2022-10-22T03:38:59;11.40;99.90
36498;DHT22;22513;51.222;6.480;2022-10-22T03:41:25;11.40;99.90
36498;DHT22;22513;51.222;6.480;2022-10-22T03:43:52;11.40;99.90
36498;DHT22;22513;51.222;6.480;2022-10-22T03:46:18;11.40;99.90
36498;DHT22;22513;51.222;6.480;2022-10-22T03:48:44;11.40;99.90
36498;DHT22;22513;51.222;6.480;2022-10-22T03:51:10;11.40;99.90
36498;DHT22;22513;51.222;6.480;2022-10-22T03:53:35;11.40;99.90
36498;DHT22;22513;51.222;6.480;2022-10-22T03:56:01;11.40;99.90
36498;DHT22;22513;51.222;6.480;2022-10-22T03:58:26;11.40;99.90
36498;DHT22;22513;51.222;6.480;2022-10-22T04:00:52;11.40;99.90
36498;DHT22;22513;51.222;6.480;2022-10-22T04:03:18;11.40;99.90
36498;DHT22;22513;51.222;6.480;2022-10-22T04:05:43;11.30;99.90
36498;DHT22;22513;51.222;6.480;2022-10-22T04:08:09;11.30;99.90
36498;DHT22;22513;51.222;6.480;2022-10-22T04:10:34;11.30;99.90
36498;DHT22;22513;51.222;6.480;2022-10-22T04:13:00;11.30;99.90
36498;DHT22;22513;51.222;6.480;2022-10-22T04:15:26;11.30;99.90
36498;DHT22;22513;51.222;6.480;2022-10-22T04:17:53;11.30;99.90
36498;DHT22;22513;51.222;6.480;2022-10-22T04:20:19;11.30;99.90
36498;DHT22;22513;51.222;6.480;2022-10-22T04:22:44;11.20;99.90
36498;DHT22;22513;51.222;6.480;2022-10-22T04:25:10;11.20;99.90
36498;DHT22;22513;51.222;6.480;2022-10-22T04:27:36;11.20;99.90
36498;DHT22;22513;51.222;6.480;2022-10-22T04:30:04;11.20;99.90
36498;DHT22;22513;51.222;6.480;2022-10-22T04:32:31;11.10;99.90
36498;DHT22;22513;51.222;6.480;2022-10-22T04:34:56;11.10;99.90
36498;DHT22;22513;51.222;6.480;2022-10-22T04:37:22;11.00;99.90
36498;DHT22;22513;51.222;6.480;2022-10-22T04:39:48;11.00;99.90
36498;DHT22;22513;51.222;6.480;2022-10-22T04:42:13;10.90;99.90
36498;DHT22;22513;51.222;6.480;2022-10-22T04:44:39;11.00;99.90
36498;DHT22;22513;51.222;6.480;2022-10-22T04:47:04;10.90;99.90
36498;DHT22;22513;51.222;6.480;2022-10-22T04:49:30;10.90;99.90
36498;DHT22;22513;51.222;6.480;2022-10-22T04:51:55;10.80;99.90
36498;DHT22;22513;51.222;6.480;2022-10-22T04:54:21;10.90;99.90
36498;DHT22;22513;51.222;6.480;2022-10-22T04:56:46;10.90;99.90
36498;DHT22;22513;51.222;6.480;2022-10-22T04:59:12;10.80;99.90
36498;DHT22;22513;51.222;6.480;2022-10-22T05:01:42;10.80;99.90
36498;DHT22;22513;51.222;6.480;2022-10-22T05:04:13;10.90;99.90
36498;DHT22;22513;51.222;6.480;2022-10-22T05:06:39;10.90;99.90
36498;DHT22;22513;51.222;6.480;2022-10-22T05:09:07;11.00;99.90
36498;DHT22;22513;51.222;6.480;2022-10-22T05:11:36;11.10;99.90
36498;DHT22;22513;51.222;6.480;2022-10-22T05:14:04;11.10;99.90
36498;DHT22;22513;51.222;6.480;2022-10-22T05:16:31;11.10;99.90
36498;DHT22;22513;51.222;6.480;2022-10-22T05:18:58;11.10;99.90
36498;DHT22;22513;51.222;6.480;2022-10-22T05:21:23;11.00;99.90
36498;DHT22;22513;51.222;6.480;2022-10-22T05:23:49;11.00;99.90
36498;DHT22;22513;51.222;6.480;2022-10-22T05:26:18;11.00;99.90
36498;DHT22;22513;51.222;6.480;2022-10-22T05:28:45;10.80;99.90
36498;DHT22;22513;51.222;6.480;2022-10-22T05:31:12;10.90;99.90
36498;DHT22;22513;51.222;6.480;2022-10-22T05:33:38;10.80;99.90
36498;DHT22;22513;51.222;6.480;2022-10-22T05:36:06;10.80;99.90
36498;DHT22;22513;51.222;6.480;2022-10-22T05:38:33;10.80;99.90
36498;DHT22;22513;51.222;6.480;2022-10-22T05:43:26;10.80;99.90
36498;DHT22;22513;51.222;6.480;2022-10-22T05:45:52;10.80;99.90
36498;DHT22;22513;51.222;6.480;2022-10-22T05:48:17;10.80;99.90
36498;DHT22;22513;51.222;6.480;2022-10-22T05:50:43;10.80;99.90
36498;DHT22;22513;51.222;6.480;2022-10-22T05:53:10;10.80;99.90
36498;DHT22;22513;51.222;6.480;2022-10-22T05:55:36;10.80;99.90
36498;DHT22;22513;51.222;6.480;2022-10-22T05:58:03;10.80;99.90
36498;DHT22;22513;51.222;6.480;2022-10-22T06:00:29;10.80;99.90
36498;DHT22;22513;51.222;6.480;2022-10-22T06:02:55;10.80;99.90
36498;DHT22;22513;51.222;6.480;2022-10-22T06:05:20;10.80;99.90
36498;DHT22;22513;51.222;6.480;2022-10-22T06:07:46;10.80;99.90
36498;DHT22;22513;51.222;6.480;2022-10-22T06:10:17;10.80;99.90
36498;DHT22;22513;51.222;6.480;2022-10-22T06:12:43;10.90;99.90
36498;DHT22;22513;51.222;6.480;2022-10-22T06:15:11;10.90;99.90
36498;DHT22;22513;51.222;6.480;2022-10-22T06:17:37;11.00;99.90
36498;DHT22;22513;51.222;6.480;2022-10-22T06:20:02;11.00;99.90
36498;DHT22;22513;51.222;6.480;2022-10-22T06:22:28;11.00;99.90
36498;DHT22;22513;51.222;6.480;2022-10-22T06:24:54;11.10;99.90
36498;DHT22;22513;51.222;6.480;2022-10-22T06:27:19;11.20;99.90
36498;DHT22;22513;51.222;6.480;2022-10-22T06:29:45;11.30;99.90
36498;DHT22;22513;51.222;6.480;2022-10-22T06:32:12;11.50;99.90
36498;DHT22;22513;51.222;6.480;2022-10-22T06:34:37;11.60;99.90
36498;DHT22;22513;51.222;6.480;2022-10-22T06:37:03;11.60;99.90
36498;DHT22;22513;51.222;6.480;2022-10-22T06:39:28;11.80;99.90
36498;DHT22;22513;51.222;6.480;2022-10-22T06:41:54;11.90;99.90
36498;DHT22;22513;51.222;6.480;2022-10-22T06:44:20;12.00;99.90
36498;DHT22;22513;51.222;6.480;2022-10-22T06:46:49;12.20;99.90
36498;DHT22;22513;51.222;6.480;2022-10-22T06:49:16;12.50;99.90
36498;DHT22;22513;51.222;6.480;2022-10-22T06:51:42;12.70;99.90
36498;DHT22;22513;51.222;6.480;2022-10-22T06:54:08;12.80;99.90
36498;DHT22;22513;51.222;6.480;2022-10-22T06:56:34;13.00;99.90
36498;DHT22;22513;51.222;6.480;2022-10-22T06:58:59;13.00;99.90
36498;DHT22;22513;51.222;6.480;2022-10-22T07:01:28;13.10;99.90
36498;DHT22;22513;51.222;6.480;2022-10-22T07:03:54;13.20;99.90
36498;DHT22;22513;51.222;6.480;2022-10-22T07:06:20;13.20;99.90
36498;DHT22;22513;51.222;6.480;2022-10-22T07:08:47;13.20;99.90
36498;DHT22;22513;51.222;6.480;2022-10-22T07:11:21;13.20;99.90
36498;DHT22;22513;51.222;6.480;2022-10-22T07:13:48;13.10;99.90
36498;DHT22;22513;51.222;6.480;2022-10-22T07:16:14;13.10;99.90
36498;DHT22;22513;51.222;6.480;2022-10-22T07:18:42;13.10;99.90
36498;DHT22;22513;51.222;6.480;2022-10-22T07:21:10;13.10;99.90
36498;DHT22;22513;51.222;6.480;2022-10-22T07:23:36;13.00;99.90
36498;DHT22;22513;51.222;6.480;2022-10-22T07:26:01;13.10;99.90
36498;DHT22;22513;51.222;6.480;2022-10-22T07:28:28;13.10;99.90
36498;DHT22;22513;51.222;6.480;2022-10-22T07:30:54;13.10;99.90
36498;DHT22;22513;51.222;6.480;2022-10-22T07:33:19;13.10;99.90
36498;DHT22;22513;51.222;6.480;2022-10-22T07:35:45;13.10;99.90
36498;DHT22;22513;51.222;6.480;2022-10-22T07:38:10;13.10;99.90
36498;DHT22;22513;51.222;6.480;2022-10-22T07:40:36;13.10;99.90
36498;DHT22;22513;51.222;6.480;2022-10-22T07:43:02;13.20;99.90
36498;DHT22;22513;51.222;6.480;2022-10-22T07:45:28;13.40;99.90
36498;DHT22;22513;51.222;6.480;2022-10-22T07:47:54;13.60;99.90
36498;DHT22;22513;51.222;6.480;2022-10-22T07:50:19;13.70;99.90
36498;DHT22;22513;51.222;6.480;2022-10-22T07:52:45;13.90;99.90
36498;DHT22;22513;51.222;6.480;2022-10-22T07:55:11;14.00;99.90
36498;DHT22;22513;51.222;6.480;2022-10-22T07:57:38;14.10;99.90
36498;DHT22;22513;51.222;6.480;2022-10-22T08:00:05;14.20;99.90
36498;DHT22;22513;51.222;6.480;2022-10-22T08:02:30;14.30;99.90
36498;DHT22;22513;51.222;6.480;2022-10-22T08:04:56;14.30;99.90
36498;DHT22;22513;51.222;6.480;2022-10-22T08:07:22;14.40;99.90
36498;DHT22;22513;51.222;6.480;2022-10-22T08:09:48;14.40;99.90
36498;DHT22;22513;51.222;6.480;2022-10-22T08:12:14;14.50;99.90
36498;DHT22;22513;51.222;6.480;2022-10-22T08:14:39;14.60;99.90
36498;DHT22;22513;51.222;6.480;2022-10-22T08:17:05;14.60;99.90
36498;DHT22;22513;51.222;6.480;2022-10-22T08:19:31;14.70;99.90
36498;DHT22;22513;51.222;6.480;2022-10-22T08:21:57;14.80;99.90
36498;DHT22;22513;51.222;6.480;2022-10-22T08:24:23;14.90;99.90
36498;DHT22;22513;51.222;6.480;2022-10-22T08:26:49;14.90;99.90
36498;DHT22;22513;51.222;6.480;2022-10-22T08:29:14;15.00;99.90
36498;DHT22;22513;51.222;6.480;2022-10-22T08:31:40;15.10;99.90
36498;DHT22;22513;51.222;6.480;2022-10-22T08:34:06;15.20;99.90
36498;DHT22;22513;51.222;6.480;2022-10-22T08:36:32;15.40;99.90
36498;DHT22;22513;51.222;6.480;2022-10-22T08:38:58;15.40;99.90
36498;DHT22;22513;51.222;6.480;2022-10-22T08:41:24;15.70;99.90
36498;DHT22;22513;51.222;6.480;2022-10-22T08:44:18;15.80;99.90
36498;DHT22;22513;51.222;6.480;2022-10-22T08:46:55;15.90;99.90
36498;DHT22;22513;51.222;6.480;2022-10-22T08:49:29;16.10;99.90
36498;DHT22;22513;51.222;6.480;2022-10-22T08:51:58;16.20;99.90
36498;DHT22;22513;51.222;6.480;2022-10-22T08:57:31;16.50;99.90
36498;DHT22;22513;51.222;6.480;2022-10-22T09:02:34;16.70;99.90
36498;DHT22;22513;51.222;6.480;2022-10-22T09:07:49;16.80;99.90
36498;DHT22;22513;51.222;6.480;2022-10-22T09:10:17;16.80;99.90
36498;DHT22;22513;51.222;6.480;2022-10-22T09:12:43;16.80;99.90
36498;DHT22;22513;51.222;6.480;2022-10-22T09:15:17;16.80;99.90
36498;DHT22;22513;51.222;6.480;2022-10-22T09:20:49;16.90;99.90
36498;DHT22;22513;51.222;6.480;2022-10-22T09:25:56;17.10;99.90
36498;DHT22;22513;51.222;6.480;2022-10-22T09:28:21;17.20;99.90
36498;DHT22;22513;51.222;6.480;2022-10-22T09:30:47;17.30;99.90
36498;DHT22;22513;51.222;6.480;2022-10-22T09:33:16;17.40;99.90
36498;DHT22;22513;51.222;6.480;2022-10-22T09:38:08;17.80;99.90
36498;DHT22;22513;51.222;6.480;2022-10-22T09:40:51;18.00;99.90
36498;DHT22;22513;51.222;6.480;2022-10-22T09:43:17;18.20;99.90
36498;DHT22;22513;51.222;6.480;2022-10-22T09:45:44;18.40;99.90
36498;DHT22;22513;51.222;6.480;2022-10-22T09:48:21;18.50;99.90
36498;DHT22;22513;51.222;6.480;2022-10-22T09:51:02;18.60;99.90
36498;DHT22;22513;51.222;6.480;2022-10-22T09:53:37;18.70;99.90
36498;DHT22;22513;51.222;6.480;2022-10-22T09:56:27;18.70;99.90
36498;DHT22;22513;51.222;6.480;2022-10-22T09:58:57;18.90;99.90
36498;DHT22;22513;51.222;6.480;2022-10-22T10:01:26;19.00;99.90
36498;DHT22;22513;51.222;6.480;2022-10-22T10:03:52;19.10;99.90
36498;DHT22;22513;51.222;6.480;2022-10-22T10:06:22;19.20;99.90
36498;DHT22;22513;51.222;6.480;2022-10-22T10:08:47;19.30;99.90
36498;DHT22;22513;51.222;6.480;2022-10-22T10:19:26;19.50;99.90
36498;DHT22;22513;51.222;6.480;2022-10-22T10:30:50;19.70;99.90
36498;DHT22;22513;51.222;6.480;2022-10-22T10:36:06;19.30;99.90
36498;DHT22;22513;51.222;6.480;2022-10-22T10:41:17;19.10;99.90
36498;DHT22;22513;51.222;6.480;2022-10-22T10:47:10;19.30;99.90
36498;DHT22;22513;51.222;6.480;2022-10-22T10:49:37;19.50;99.90
36498;DHT22;22513;51.222;6.480;2022-10-22T10:52:25;19.60;99.90
36498;DHT22;22513;51.222;6.480;2022-10-22T10:58:18;19.70;99.90
36498;DHT22;22513;51.222;6.480;2022-10-22T11:00:58;19.70;99.90
36498;DHT22;22513;51.222;6.480;2022-10-22T11:06:06;19.50;99.90
36498;DHT22;22513;51.222;6.480;2022-10-22T11:08:51;19.60;99.90
36498;DHT22;22513;51.222;6.480;2022-10-22T11:11:33;19.60;99.90
36498;DHT22;22513;51.222;6.480;2022-10-22T11:14:02;19.70;99.90
36498;DHT22;22513;51.222;6.480;2022-10-22T11:16:36;19.70;99.90
36498;DHT22;22513;51.222;6.480;2022-10-22T11:27:24;19.90;99.90
36498;DHT22;22513;51.222;6.480;2022-10-22T11:30:03;20.00;99.90
36498;DHT22;22513;51.222;6.480;2022-10-22T11:32:30;20.00;99.90
36498;DHT22;22513;51.222;6.480;2022-10-22T11:35:01;20.10;99.90
36498;DHT22;22513;51.222;6.480;2022-10-22T11:37:30;20.10;99.90
36498;DHT22;22513;51.222;6.480;2022-10-22T11:40:07;20.20;99.90
36498;DHT22;22513;51.222;6.480;2022-10-22T11:42:43;20.20;99.90
36498;DHT22;22513;51.222;6.480;2022-10-22T11:58:30;20.10;99.90
36498;DHT22;22513;51.222;6.480;2022-10-22T12:06:17;20.10;99.90
36498;DHT22;22513;51.222;6.480;2022-10-22T12:12:00;20.00;99.90
36498;DHT22;22513;51.222;6.480;2022-10-22T12:14:23;20.00;99.90
36498;DHT22;22513;51.222;6.480;2022-10-22T12:17:20;20.10;99.90
36498;DHT22;22513;51.222;6.480;2022-10-22T12:20:10;20.00;99.90
36498;DHT22;22513;51.222;6.480;2022-10-22T12:22:37;20.00;99.90
36498;DHT22;22513;51.222;6.480;2022-10-22T12:25:20;20.10;99.90
36498;DHT22;22513;51.222;6.480;2022-10-22T12:27:50;20.20;99.90
36498;DHT22;22513;51.222;6.480;2022-10-22T12:30:19;20.30;99.90
36498;DHT22;22513;51.222;6.480;2022-10-22T12:32:46;20.30;99.90
36498;DHT22;22513;51.222;6.480;2022-10-22T12:35:20;20.40;99.90
36498;DHT22;22513;51.222;6.480;2022-10-22T12:37:59;20.40;99.90
36498;DHT22;22513;51.222;6.480;2022-10-22T12:40:32;20.40;99.90
36498;DHT22;22513;51.222;6.480;2022-10-22T12:43:03;20.50;99.90
36498;DHT22;22513;51.222;6.480;2022-10-22T12:45:33;20.60;99.90
36498;DHT22;22513;51.222;6.480;2022-10-22T12:48:05;20.60;99.90
36498;DHT22;22513;51.222;6.480;2022-10-22T12:50:39;20.60;99.90
36498;DHT22;22513;51.222;6.480;2022-10-22T12:53:12;20.70;99.90
36498;DHT22;22513;51.222;6.480;2022-10-22T12:55:39;20.60;99.90
36498;DHT22;22513;51.222;6.480;2022-10-22T12:58:06;20.60;99.90
36498;DHT22;22513;51.222;6.480;2022-10-22T13:00:33;20.60;99.90
36498;DHT22;22513;51.222;6.480;2022-10-22T13:03:04;20.50;99.90
36498;DHT22;22513;51.222;6.480;2022-10-22T13:05:32;20.50;99.90
36498;DHT22;22513;51.222;6.480;2022-10-22T13:08:08;20.60;99.90
36498;DHT22;22513;51.222;6.480;2022-10-22T13:10:36;20.50;99.90
36498;DHT22;22513;51.222;6.480;2022-10-22T13:13:03;20.40;99.90
36498;DHT22;22513;51.222;6.480;2022-10-22T13:18:20;20.20;99.90
36498;DHT22;22513;51.222;6.480;2022-10-22T13:23:22;20.00;99.90
36498;DHT22;22513;51.222;6.480;2022-10-22T13:26:00;20.00;99.90
36498;DHT22;22513;51.222;6.480;2022-10-22T13:28:28;19.80;99.90
36498;DHT22;22513;51.222;6.480;2022-10-22T13:31:18;19.80;99.90
36498;DHT22;22513;51.222;6.480;2022-10-22T13:33:49;19.70;99.90
36498;DHT22;22513;51.222;6.480;2022-10-22T13:36:16;19.60;99.90
36498;DHT22;22513;51.222;6.480;2022-10-22T13:38:43;19.60;99.90
36498;DHT22;22513;51.222;6.480;2022-10-22T13:41:27;19.60;99.90
36498;DHT22;22513;51.222;6.480;2022-10-22T13:43:53;19.50;99.90
36498;DHT22;22513;51.222;6.480;2022-10-22T13:46:19;19.50;99.90
36498;DHT22;22513;51.222;6.480;2022-10-22T13:48:47;19.50;99.90
36498;DHT22;22513;51.222;6.480;2022-10-22T13:51:19;19.50;99.90
36498;DHT22;22513;51.222;6.480;2022-10-22T13:53:46;19.50;99.90
36498;DHT22;22513;51.222;6.480;2022-10-22T13:56:16;19.40;99.90
36498;DHT22;22513;51.222;6.480;2022-10-22T13:58:44;19.40;99.90
36498;DHT22;22513;51.222;6.480;2022-10-22T14:01:22;19.40;99.90
36498;DHT22;22513;51.222;6.480;2022-10-22T14:03:49;19.40;99.90
36498;DHT22;22513;51.222;6.480;2022-10-22T14:06:17;19.30;99.90
36498;DHT22;22513;51.222;6.480;2022-10-22T14:08:48;19.30;99.90
36498;DHT22;22513;51.222;6.480;2022-10-22T14:11:16;19.40;99.90
36498;DHT22;22513;51.222;6.480;2022-10-22T14:13:42;19.40;99.90
36498;DHT22;22513;51.222;6.480;2022-10-22T14:16:15;19.50;99.90
36498;DHT22;22513;51.222;6.480;2022-10-22T14:18:41;19.50;99.90
36498;DHT22;22513;51.222;6.480;2022-10-22T14:21:07;19.50;99.90
36498;DHT22;22513;51.222;6.480;2022-10-22T14:23:34;19.40;99.90
36498;DHT22;22513;51.222;6.480;2022-10-22T14:26:01;19.40;99.90
36498;DHT22;22513;51.222;6.480;2022-10-22T14:28:27;19.30;99.90
36498;DHT22;22513;51.222;6.480;2022-10-22T14:30:53;19.30;99.90
36498;DHT22;22513;51.222;6.480;2022-10-22T14:33:23;19.20;99.90
36498;DHT22;22513;51.222;6.480;2022-10-22T14:35:50;19.20;99.90
36498;DHT22;22513;51.222;6.480;2022-10-22T14:38:16;19.20;99.90
36498;DHT22;22513;51.222;6.480;2022-10-22T14:40:42;19.10;99.90
36498;DHT22;22513;51.222;6.480;2022-10-22T14:43:26;19.00;99.90
36498;DHT22;22513;51.222;6.480;2022-10-22T14:45:52;18.80;99.90
36498;DHT22;22513;51.222;6.480;2022-10-22T14:48:19;18.60;99.90
36498;DHT22;22513;51.222;6.480;2022-10-22T14:50:45;18.50;99.90
36498;DHT22;22513;51.222;6.480;2022-10-22T14:53:12;18.40;99.90
36498;DHT22;22513;51.222;6.480;2022-10-22T14:55:38;18.20;99.90
36498;DHT22;22513;51.222;6.480;2022-10-22T14:58:04;18.10;99.90
36498;DHT22;22513;51.222;6.480;2022-10-22T15:00:30;18.00;99.90
36498;DHT22;22513;51.222;6.480;2022-10-22T15:02:56;17.90;99.90
36498;DHT22;22513;51.222;6.480;2022-10-22T15:05:24;17.90;99.90
36498;DHT22;22513;51.222;6.480;2022-10-22T15:07:49;17.80;99.90
36498;DHT22;22513;51.222;6.480;2022-10-22T15:10:15;17.80;99.90
36498;DHT22;22513;51.222;6.480;2022-10-22T15:12:41;17.70;99.90
36498;DHT22;22513;51.222;6.480;2022-10-22T15:15:06;17.60;99.90
36498;DHT22;22513;51.222;6.480;2022-10-22T15:17:32;17.60;99.90
36498;DHT22;22513;51.222;6.480;2022-10-22T15:19:58;17.60;99.90
36498;DHT22;22513;51.222;6.480;2022-10-22T15:22:31;17.50;99.90
36498;DHT22;22513;51.222;6.480;2022-10-22T15:25:00;17.50;99.90
36498;DHT22;22513;51.222;6.480;2022-10-22T15:27:26;17.40;99.90
36498;DHT22;22513;51.222;6.480;2022-10-22T15:29:52;17.40;99.90
36498;DHT22;22513;51.222;6.480;2022-10-22T15:32:17;17.30;99.90
36498;DHT22;22513;51.222;6.480;2022-10-22T15:34:43;17.20;99.90
36498;DHT22;22513;51.222;6.480;2022-10-22T15:37:11;17.20;99.90
36498;DHT22;22513;51.222;6.480;2022-10-22T15:39:40;17.10;99.90
36498;DHT22;22513;51.222;6.480;2022-10-22T15:42:06;17.00;99.90
36498;DHT22;22513;51.222;6.480;2022-10-22T15:44:32;16.90;99.90
36498;DHT22;22513;51.222;6.480;2022-10-22T15:46:58;16.80;99.90
36498;DHT22;22513;51.222;6.480;2022-10-22T15:49:26;16.70;99.90
36498;DHT22;22513;51.222;6.480;2022-10-22T15:51:52;16.60;99.90
36498;DHT22;22513;51.222;6.480;2022-10-22T15:54:24;16.50;99.90
36498;DHT22;22513;51.222;6.480;2022-10-22T15:56:50;16.40;99.90
36498;DHT22;22513;51.222;6.480;2022-10-22T15:59:16;16.30;99.90
36498;DHT22;22513;51.222;6.480;2022-10-22T16:01:43;16.20;99.90
36498;DHT22;22513;51.222;6.480;2022-10-22T16:04:09;16.10;99.90
36498;DHT22;22513;51.222;6.480;2022-10-22T16:06:41;16.00;99.90
36498;DHT22;22513;51.222;6.480;2022-10-22T16:09:12;15.90;99.90
36498;DHT22;22513;51.222;6.480;2022-10-22T16:11:40;15.80;99.90
36498;DHT22;22513;51.222;6.480;2022-10-22T16:14:06;15.70;99.90
36498;DHT22;22513;51.222;6.480;2022-10-22T16:16:34;15.60;99.90
36498;DHT22;22513;51.222;6.480;2022-10-22T16:19:00;15.40;99.90
36498;DHT22;22513;51.222;6.480;2022-10-22T16:21:27;15.30;99.90
36498;DHT22;22513;51.222;6.480;2022-10-22T16:23:52;15.10;99.90
36498;DHT22;22513;51.222;6.480;2022-10-22T16:26:19;15.00;99.90
36498;DHT22;22513;51.222;6.480;2022-10-22T16:28:46;14.90;99.90
36498;DHT22;22513;51.222;6.480;2022-10-22T16:31:13;14.80;99.90
36498;DHT22;22513;51.222;6.480;2022-10-22T16:33:40;14.70;99.90
36498;DHT22;22513;51.222;6.480;2022-10-22T16:36:10;14.60;99.90
36498;DHT22;22513;51.222;6.480;2022-10-22T16:38:36;14.60;99.90
36498;DHT22;22513;51.222;6.480;2022-10-22T16:41:10;14.40;99.90
36498;DHT22;22513;51.222;6.480;2022-10-22T16:43:36;14.30;99.90
36498;DHT22;22513;51.222;6.480;2022-10-22T16:46:02;14.20;99.90
36498;DHT22;22513;51.222;6.480;2022-10-22T16:48:28;14.10;99.90
36498;DHT22;22513;51.222;6.480;2022-10-22T16:50:53;14.00;99.90
36498;DHT22;22513;51.222;6.480;2022-10-22T16:53:19;13.90;99.90
36498;DHT22;22513;51.222;6.480;2022-10-22T16:55:44;13.80;99.90
36498;DHT22;22513;51.222;6.480;2022-10-22T16:58:10;13.80;99.90
36498;DHT22;22513;51.222;6.480;2022-10-22T17:00:36;13.70;99.90
36498;DHT22;22513;51.222;6.480;2022-10-22T17:03:02;13.80;99.90
36498;DHT22;22513;51.222;6.480;2022-10-22T17:05:27;13.70;99.90
36498;DHT22;22513;51.222;6.480;2022-10-22T17:07:53;13.70;99.90
36498;DHT22;22513;51.222;6.480;2022-10-22T17:10:19;13.70;99.90
36498;DHT22;22513;51.222;6.480;2022-10-22T17:12:45;13.60;99.90
36498;DHT22;22513;51.222;6.480;2022-10-22T17:15:11;13.60;99.90
36498;DHT22;22513;51.222;6.480;2022-10-22T17:17:37;13.50;99.90
36498;DHT22;22513;51.222;6.480;2022-10-22T17:20:04;13.50;99.90
36498;DHT22;22513;51.222;6.480;2022-10-22T17:22:30;13.40;99.90
36498;DHT22;22513;51.222;6.480;2022-10-22T17:25:15;13.50;99.90
36498;DHT22;22513;51.222;6.480;2022-10-22T17:27:42;13.50;99.90